createdAt,value
2023-05-09T00:00:33.020Z,99.90
2023-05-09T00:03:00.358Z,99.90
2023-05-09T00:05:27.513Z,99.90
2023-05-09T00:07:54.699Z,99.90
2023-05-09T00:10:21.854Z,99.90
2023-05-09T00:12:49.648Z,99.90
2023-05-09T00:15:16.888Z,99.90
2023-05-09T00:17:44.922Z,99.90
2023-05-09T00:20:13.035Z,99.90
2023-05-09T00:22:41.261Z,99.90
2023-05-09T00:25:10.144Z,99.90
2023-05-09T00:27:37.738Z,99.90
2023-05-09T00:30:06.229Z,99.90
2023-05-09T00:32:34.099Z,99.90
2023-05-09T00:35:01.364Z,99.90
2023-05-09T00:37:31.354Z,99.90
2023-05-09T00:39:58.947Z,99.90
2023-05-09T00:42:26.047Z,99.90
2023-05-09T00:44:53.254Z,99.90
2023-05-09T00:47:23.303Z,99.90
2023-05-09T00:49:50.760Z,99.90
2023-05-09T00:52:21.673Z,99.90
2023-05-09T00:54:49.931Z,99.90
2023-05-09T00:57:17.361Z,99.90
2023-05-09T00:59:44.644Z,99.90
2023-05-09T01:02:11.873Z,99.90
2023-05-09T01:04:39.746Z,99.90
2023-05-09T01:07:13.442Z,99.90
2023-05-09T01:09:50.096Z,99.90
2023-05-09T01:12:31.500Z,99.90
2023-05-09T01:15:08.046Z,99.90
2023-05-09T01:17:41.801Z,99.90
2023-05-09T01:20:16.530Z,99.90
2023-05-09T01:22:45.839Z,99.90
2023-05-09T01:25:55.146Z,99.90
2023-05-09T01:31:29.529Z,99.90
2023-05-09T01:34:00.107Z,99.90
2023-05-09T01:36:33.045Z,99.90
2023-05-09T01:39:02.346Z,99.90
2023-05-09T01:41:32.113Z,99.90
2023-05-09T01:44:02.431Z,99.90
2023-05-09T01:46:30.895Z,99.90
2023-05-09T01:48:58.856Z,99.90
2023-05-09T01:51:27.381Z,99.90
2023-05-09T01:53:59.216Z,99.90
2023-05-09T01:56:27.810Z,99.90
2023-05-09T01:58:58.410Z,99.90
2023-05-09T02:01:26.542Z,99.90
2023-05-09T02:03:56.005Z,99.90
2023-05-09T02:06:24.880Z,99.90
2023-05-09T02:08:56.739Z,99.90
2023-05-09T02:11:26.510Z,99.90
2023-05-09T04:05:40.906Z,99.90
2023-05-09T04:29:24.090Z,99.90
2023-05-09T04:31:54.711Z,99.90
2023-05-09T04:37:27.192Z,99.90
2023-05-09T04:39:55.840Z,99.90
2023-05-09T04:42:29.436Z,99.90
2023-05-09T04:44:57.060Z,99.90
2023-05-09T04:47:24.311Z,99.90
2023-05-09T04:49:51.535Z,99.90
2023-05-09T04:52:18.692Z,99.90
2023-05-09T04:54:45.851Z,99.90
2023-05-09T04:57:18.585Z,99.90
2023-05-09T04:59:53.222Z,99.90
2023-05-09T05:02:21.394Z,99.90
2023-05-09T05:04:50.104Z,99.90
2023-05-09T05:07:17.579Z,99.90
2023-05-09T05:09:45.706Z,99.90
2023-05-09T05:12:13.466Z,99.90
2023-05-09T05:14:42.451Z,99.90
2023-05-09T05:17:11.853Z,99.90
2023-05-09T05:19:39.161Z,99.90
2023-05-09T05:22:08.086Z,99.90
2023-05-09T05:24:37.301Z,99.90
2023-05-09T05:27:04.533Z,99.90
2023-05-09T05:29:31.907Z,99.90
2023-05-09T05:31:59.084Z,99.90
2023-05-09T05:34:26.201Z,99.90
2023-05-09T05:36:53.435Z,99.90
2023-05-09T05:39:20.986Z,99.90
2023-05-09T05:41:48.853Z,99.90
2023-05-09T05:44:17.212Z,99.90
2023-05-09T05:46:44.956Z,99.90
2023-05-09T05:49:12.378Z,99.90
2023-05-09T05:51:39.595Z,99.90
2023-05-09T05:54:08.421Z,99.90
2023-05-09T05:56:36.682Z,99.90
2023-05-09T05:59:04.122Z,99.90
2023-05-09T06:01:31.349Z,99.90
2023-05-09T06:03:58.982Z,99.90
2023-05-09T06:06:29.540Z,99.90
2023-05-09T06:08:57.503Z,99.90
2023-05-09T06:11:24.755Z,99.90
2023-05-09T06:13:51.928Z,99.90
2023-05-09T06:16:20.559Z,99.90
2023-05-09T06:18:52.763Z,99.90
2023-05-09T06:21:22.077Z,99.90
2023-05-09T06:24:05.956Z,99.90
2023-05-09T06:26:35.799Z,99.90
2023-05-09T06:29:04.010Z,99.90
2023-05-09T06:31:31.247Z,99.90
2023-05-09T06:33:58.363Z,99.90
2023-05-09T06:36:25.617Z,99.90
2023-05-09T06:38:52.696Z,99.90
2023-05-09T06:41:19.786Z,99.90
2023-05-09T06:43:46.860Z,99.90
2023-05-09T06:46:14.030Z,99.90
2023-05-09T06:48:41.263Z,99.90
2023-05-09T06:51:08.486Z,99.90
2023-05-09T06:53:36.008Z,99.90
2023-05-09T06:56:03.149Z,99.90
2023-05-09T06:58:30.550Z,99.90
2023-05-09T07:00:57.938Z,99.90
2023-05-09T07:03:25.045Z,99.90
2023-05-09T07:05:53.458Z,99.90
2023-05-09T07:08:20.608Z,99.90
2023-05-09T07:10:47.713Z,99.90
2023-05-09T07:13:14.853Z,99.90
2023-05-09T07:15:43.117Z,99.90
2023-05-09T07:18:10.585Z,99.90
2023-05-09T07:20:37.819Z,99.90
2023-05-09T07:23:06.224Z,99.90
2023-05-09T07:25:33.737Z,98.30
2023-05-09T07:28:01.222Z,98.50
2023-05-09T07:30:28.425Z,98.00
2023-05-09T07:32:55.727Z,96.10
2023-05-09T07:35:23.132Z,96.90
2023-05-09T07:37:50.937Z,96.50
2023-05-09T07:40:18.252Z,96.40
2023-05-09T07:42:49.829Z,94.60
2023-05-09T07:45:18.355Z,94.00
2023-05-09T07:47:46.558Z,92.80
2023-05-09T07:50:13.676Z,93.10
2023-05-09T07:52:40.794Z,93.60
2023-05-09T07:55:08.165Z,92.10
2023-05-09T07:57:35.421Z,91.00
2023-05-09T08:00:02.590Z,90.40
2023-05-09T08:02:40.829Z,87.60
2023-05-09T08:05:08.848Z,85.20
2023-05-09T08:07:37.076Z,87.70
2023-05-09T08:10:04.492Z,84.30
2023-05-09T08:12:31.623Z,81.40
2023-05-09T08:14:58.685Z,83.20
2023-05-09T08:17:25.873Z,82.80
2023-05-09T08:19:52.949Z,81.40
2023-05-09T08:22:20.722Z,81.70
2023-05-09T08:24:48.326Z,80.50
2023-05-09T08:27:15.732Z,82.30
2023-05-09T08:29:43.725Z,78.10
2023-05-09T08:32:10.900Z,77.70
2023-05-09T08:34:38.037Z,79.20
2023-05-09T08:37:05.261Z,80.20
2023-05-09T08:39:34.935Z,76.20
2023-05-09T08:42:02.702Z,75.10
2023-05-09T08:44:31.875Z,74.20
2023-05-09T08:47:01.309Z,77.00
2023-05-09T08:49:29.411Z,77.80
2023-05-09T08:51:57.525Z,75.40
2023-05-09T08:54:25.839Z,75.70
2023-05-09T08:56:53.108Z,77.20
2023-05-09T08:59:20.731Z,76.10
2023-05-09T09:01:48.129Z,78.10
2023-05-09T09:04:15.309Z,76.60
2023-05-09T09:06:43.754Z,78.10
2023-05-09T09:09:13.930Z,76.10
2023-05-09T09:11:42.011Z,75.00
2023-05-09T09:14:15.288Z,74.10
2023-05-09T09:16:45.030Z,73.50
2023-05-09T09:19:16.697Z,72.30
2023-05-09T09:21:47.338Z,73.90
2023-05-09T09:24:17.361Z,71.70
2023-05-09T09:26:48.922Z,71.60
2023-05-09T09:29:16.968Z,68.70
2023-05-09T09:31:48.281Z,70.40
2023-05-09T09:34:21.521Z,68.60
2023-05-09T09:36:49.011Z,68.60
2023-05-09T09:39:16.368Z,68.00
2023-05-09T09:41:45.100Z,68.50
2023-05-09T09:44:17.392Z,67.60
2023-05-09T09:46:50.865Z,68.30
2023-05-09T09:49:23.046Z,66.90
2023-05-09T09:51:55.427Z,70.50
2023-05-09T09:54:23.249Z,68.40
2023-05-09T09:56:54.749Z,68.80
2023-05-09T09:59:25.159Z,66.40
2023-05-09T10:02:09.319Z,64.90
2023-05-09T10:04:38.859Z,64.40
2023-05-09T10:07:08.788Z,65.00
2023-05-09T10:09:38.183Z,63.00
2023-05-09T10:12:07.577Z,65.00
2023-05-09T10:14:36.507Z,65.40
2023-05-09T10:17:05.734Z,65.60
2023-05-09T10:19:33.648Z,63.00
2023-05-09T10:22:08.331Z,62.70
2023-05-09T10:24:40.055Z,61.50
2023-05-09T10:27:10.639Z,61.10
2023-05-09T10:30:01.109Z,61.20
2023-05-09T10:32:36.374Z,60.70
2023-05-09T10:35:07.117Z,61.30
2023-05-09T10:37:34.398Z,61.60
2023-05-09T10:40:06.145Z,60.70
2023-05-09T10:42:33.206Z,59.50
2023-05-09T10:45:01.101Z,59.40
2023-05-09T10:47:29.141Z,58.10
2023-05-09T10:49:56.662Z,60.10
2023-05-09T10:52:24.190Z,62.20
2023-05-09T10:55:06.934Z,60.30
2023-05-09T10:57:39.197Z,59.20
2023-05-09T11:00:07.670Z,59.50
2023-05-09T11:02:35.016Z,59.50
2023-05-09T11:05:38.610Z,59.60
2023-05-09T11:08:25.930Z,57.70
2023-05-09T11:10:57.886Z,58.80
2023-05-09T11:13:30.241Z,59.10
2023-05-09T11:16:04.404Z,57.00
2023-05-09T11:18:32.953Z,57.90
2023-05-09T11:21:07.035Z,54.70
2023-05-09T11:23:34.165Z,55.60
2023-05-09T11:26:09.177Z,55.30
2023-05-09T11:28:37.777Z,53.80
2023-05-09T11:31:16.592Z,54.00
2023-05-09T11:33:47.309Z,52.80
2023-05-09T11:36:18.843Z,52.80
2023-05-09T11:38:47.553Z,53.20
2023-05-09T11:41:15.099Z,53.10
2023-05-09T11:43:44.792Z,54.10
2023-05-09T11:46:12.947Z,54.30
2023-05-09T11:48:42.009Z,54.60
2023-05-09T11:51:18.996Z,55.70
2023-05-09T11:53:50.630Z,53.70
2023-05-09T11:56:18.091Z,53.40
2023-05-09T11:58:46.959Z,52.50
2023-05-09T12:01:14.190Z,52.90
2023-05-09T12:03:45.676Z,51.70
2023-05-09T12:06:18.330Z,50.70
2023-05-09T12:08:46.393Z,50.90
2023-05-09T12:11:15.197Z,52.00
2023-05-09T12:13:49.972Z,51.80
2023-05-09T12:16:18.332Z,51.10
2023-05-09T12:18:52.809Z,51.50
2023-05-09T12:21:21.759Z,51.10
2023-05-09T12:23:51.787Z,52.30
2023-05-09T12:26:22.801Z,52.10
2023-05-09T12:28:50.848Z,51.70
2023-05-09T12:31:18.254Z,52.00
2023-05-09T12:33:45.497Z,50.10
2023-05-09T12:36:13.847Z,50.10
2023-05-09T12:38:41.330Z,49.00
2023-05-09T12:41:22.530Z,49.50
2023-05-09T12:43:58.445Z,49.10
2023-05-09T12:46:25.827Z,49.60
2023-05-09T12:48:53.030Z,49.40
2023-05-09T12:51:21.345Z,50.10
2023-05-09T12:53:48.895Z,51.10
2023-05-09T12:56:20.478Z,49.40
2023-05-09T12:58:55.460Z,48.80
2023-05-09T13:01:29.676Z,48.00
2023-05-09T13:04:05.137Z,49.50
2023-05-09T13:06:33.011Z,49.30
2023-05-09T13:09:02.459Z,49.00
2023-05-09T13:11:30.148Z,48.90
2023-05-09T13:13:57.651Z,48.20
2023-05-09T13:16:24.836Z,48.20
2023-05-09T13:18:52.055Z,49.00
2023-05-09T13:21:19.509Z,48.50
2023-05-09T13:23:47.011Z,48.90
2023-05-09T13:26:14.611Z,49.20
2023-05-09T13:28:41.653Z,46.70
2023-05-09T13:31:08.907Z,48.10
2023-05-09T13:33:36.041Z,47.70
2023-05-09T13:36:03.949Z,48.10
2023-05-09T13:38:32.358Z,48.90
2023-05-09T13:41:00.241Z,47.30
2023-05-09T13:43:27.590Z,47.00
2023-05-09T13:45:54.943Z,45.50
2023-05-09T13:48:22.011Z,45.50
2023-05-09T13:50:49.585Z,47.00
2023-05-09T13:53:16.782Z,45.20
2023-05-09T13:55:45.832Z,46.50
2023-05-09T13:58:12.913Z,46.60
2023-05-09T14:00:40.853Z,46.70
2023-05-09T14:03:08.018Z,48.50
2023-05-09T14:05:35.305Z,45.50
2023-05-09T14:08:03.472Z,44.90
2023-05-09T14:10:30.548Z,44.80
2023-05-09T14:12:58.103Z,35.00
2023-05-09T14:15:25.482Z,29.20
2023-05-09T14:17:52.552Z,31.00
2023-05-09T14:20:21.032Z,34.20
2023-05-09T14:23:57.420Z,37.90
2023-05-09T14:26:26.791Z,40.70
2023-05-09T14:28:56.689Z,42.90
2023-05-09T14:31:24.146Z,42.80
2023-05-09T14:33:51.550Z,43.90
2023-05-09T14:36:18.719Z,44.90
2023-05-09T14:38:47.031Z,44.00
2023-05-09T14:41:20.209Z,44.90
2023-05-09T14:43:49.185Z,44.00
2023-05-09T14:46:17.381Z,44.60
2023-05-09T14:48:44.820Z,45.60
2023-05-09T14:51:12.097Z,45.80
2023-05-09T14:53:42.166Z,45.40
2023-05-09T14:56:11.713Z,45.40
2023-05-09T14:58:38.833Z,46.50
2023-05-09T15:01:05.958Z,47.50
2023-05-09T15:03:33.220Z,46.80
2023-05-09T15:06:00.404Z,46.30
2023-05-09T15:08:27.566Z,46.10
2023-05-09T15:10:54.619Z,46.20
2023-05-09T15:13:22.128Z,47.60
2023-05-09T15:15:49.304Z,48.40
2023-05-09T15:18:18.602Z,48.40
2023-05-09T15:20:45.773Z,47.90
2023-05-09T15:23:13.674Z,47.40
2023-05-09T15:25:42.386Z,47.40
2023-05-09T15:28:09.460Z,47.00
2023-05-09T15:30:38.329Z,48.30
2023-05-09T15:33:05.779Z,48.00
2023-05-09T15:35:32.907Z,47.30
2023-05-09T15:38:00.187Z,47.30
2023-05-09T15:40:28.341Z,46.90
2023-05-09T15:42:55.774Z,46.90
2023-05-09T15:45:22.928Z,47.20
2023-05-09T15:47:50.049Z,47.70
2023-05-09T15:50:17.348Z,47.40
2023-05-09T15:52:44.567Z,47.80
2023-05-09T15:55:13.051Z,48.00
2023-05-09T15:57:40.224Z,48.50
2023-05-09T16:00:07.920Z,49.40
2023-05-09T16:02:39.776Z,49.40
2023-05-09T16:05:07.153Z,49.70
2023-05-09T16:07:35.732Z,49.00
2023-05-09T16:10:03.352Z,49.40
2023-05-09T16:12:32.896Z,49.50
2023-05-09T16:15:00.210Z,49.20
2023-05-09T16:17:27.482Z,49.20
2023-05-09T16:19:55.805Z,49.30
2023-05-09T16:22:22.910Z,49.50
2023-05-09T16:24:49.967Z,50.40
2023-05-09T16:27:18.078Z,51.40
2023-05-09T16:29:45.391Z,50.30
2023-05-09T16:32:12.517Z,49.50
2023-05-09T16:34:39.615Z,49.90
2023-05-09T16:37:06.666Z,50.00
2023-05-09T16:39:33.738Z,51.00
2023-05-09T16:42:00.814Z,50.90
2023-05-09T16:44:28.410Z,51.00
2023-05-09T16:46:57.060Z,51.40
2023-05-09T16:49:24.161Z,50.90
2023-05-09T16:51:51.609Z,51.10
2023-05-09T16:54:18.665Z,50.50
2023-05-09T16:56:45.716Z,51.90
2023-05-09T16:59:13.421Z,51.60
2023-05-09T17:01:40.503Z,50.60
2023-05-09T17:04:08.524Z,51.70
2023-05-09T17:06:35.766Z,51.10
2023-05-09T17:09:02.854Z,53.30
2023-05-09T17:11:29.943Z,52.90
2023-05-09T17:13:57.015Z,54.00
2023-05-09T17:16:24.147Z,55.60
2023-05-09T17:18:52.177Z,53.60
2023-05-09T17:21:20.430Z,53.20
2023-05-09T17:23:47.663Z,53.00
2023-05-09T17:26:14.823Z,55.90
2023-05-09T17:28:43.430Z,55.10
2023-05-09T17:31:10.831Z,53.40
2023-05-09T17:33:39.935Z,56.50
2023-05-09T17:36:07.420Z,56.00
2023-05-09T17:38:34.750Z,56.20
2023-05-09T17:41:01.841Z,56.70
2023-05-09T17:43:28.955Z,57.60
2023-05-09T17:45:56.124Z,59.10
2023-05-09T17:48:23.229Z,58.40
2023-05-09T17:50:50.692Z,58.20
2023-05-09T17:53:18.517Z,57.90
2023-05-09T17:55:45.671Z,57.50
2023-05-09T17:58:14.077Z,58.00
2023-05-09T18:00:41.173Z,61.30
2023-05-09T18:03:09.422Z,62.60
2023-05-09T18:05:36.609Z,62.10
2023-05-09T18:08:03.828Z,63.10
2023-05-09T18:10:30.906Z,64.50
2023-05-09T18:12:58.017Z,64.80
2023-05-09T18:15:26.315Z,70.80
2023-05-09T18:17:54.964Z,70.80
2023-05-09T18:20:22.250Z,71.30
2023-05-09T18:22:49.463Z,72.20
2023-05-09T18:25:17.385Z,72.00
2023-05-09T18:27:44.505Z,73.10
2023-05-09T18:30:12.000Z,78.50
2023-05-09T18:32:39.174Z,74.20
2023-05-09T18:35:07.320Z,73.50
2023-05-09T18:37:34.834Z,78.00
2023-05-09T18:40:01.900Z,76.20
2023-05-09T18:42:29.140Z,76.30
2023-05-09T18:44:56.302Z,72.90
2023-05-09T18:47:24.616Z,76.10
2023-05-09T18:49:51.816Z,76.10
2023-05-09T18:52:20.674Z,76.10
2023-05-09T18:54:47.765Z,76.70
2023-05-09T18:57:14.932Z,76.60
2023-05-09T18:59:42.142Z,74.30
2023-05-09T19:02:09.193Z,74.60
2023-05-09T19:04:36.561Z,73.30
2023-05-09T19:07:03.990Z,75.30
2023-05-09T19:09:31.414Z,76.10
2023-05-09T19:12:00.707Z,77.20
2023-05-09T19:14:27.960Z,72.00
2023-05-09T19:16:55.094Z,71.40
2023-05-09T19:19:22.338Z,75.50
2023-05-09T19:24:37.650Z,73.40
2023-05-09T19:27:05.346Z,72.70
2023-05-09T19:29:32.530Z,76.80
2023-05-09T19:32:00.612Z,74.60
2023-05-09T19:34:28.889Z,78.10
2023-05-09T19:36:56.009Z,77.50
2023-05-09T19:39:23.174Z,77.20
2023-05-09T19:41:50.251Z,82.80
2023-05-09T19:44:17.385Z,86.20
2023-05-09T19:46:44.614Z,82.90
2023-05-09T19:49:12.530Z,80.60
2023-05-09T19:51:39.725Z,81.80
2023-05-09T19:54:06.784Z,84.50
2023-05-09T19:56:34.295Z,83.60
2023-05-09T19:59:01.485Z,80.50
2023-05-09T20:01:28.763Z,83.30
2023-05-09T20:03:57.160Z,80.40
2023-05-09T20:09:10.842Z,80.40
2023-05-09T20:11:38.628Z,83.80
2023-05-09T20:14:06.226Z,81.60
2023-05-09T20:16:35.537Z,80.30
2023-05-09T20:19:05.364Z,79.90
2023-05-09T20:21:32.562Z,82.80
2023-05-09T20:24:00.361Z,79.30
2023-05-09T20:26:28.407Z,81.80
2023-05-09T20:29:01.419Z,80.80
2023-05-09T20:31:29.440Z,79.00
2023-05-09T20:33:58.032Z,78.40
2023-05-09T20:36:26.801Z,80.40
2023-05-09T20:38:54.479Z,79.90
2023-05-09T20:41:22.116Z,79.80
2023-05-09T20:43:49.561Z,79.80
2023-05-09T20:46:17.444Z,77.00
2023-05-09T20:48:44.819Z,77.00
2023-05-09T20:51:11.850Z,77.80
2023-05-09T20:53:39.025Z,78.30
2023-05-09T20:56:06.201Z,75.40
2023-05-09T20:58:34.813Z,75.80
2023-05-09T21:01:02.176Z,75.60
2023-05-09T21:03:29.607Z,75.50
2023-05-09T21:05:58.046Z,75.60
2023-05-09T21:08:25.935Z,75.40
2023-05-09T21:10:53.227Z,74.10
2023-05-09T21:13:20.681Z,75.30
2023-05-09T21:15:51.235Z,73.90
2023-05-09T21:18:19.463Z,74.10
2023-05-09T21:20:46.670Z,74.90
2023-05-09T21:23:14.491Z,75.50
2023-05-09T21:25:42.958Z,73.30
2023-05-09T21:28:10.423Z,74.00
2023-05-09T21:30:37.667Z,74.40
2023-05-09T21:33:04.800Z,75.60
2023-05-09T21:35:32.021Z,76.80
2023-05-09T21:37:59.202Z,76.00
2023-05-09T21:40:26.419Z,75.80
2023-05-09T21:42:53.498Z,77.20
2023-05-09T21:45:20.846Z,76.80
2023-05-09T21:47:48.936Z,77.50
2023-05-09T21:50:16.305Z,76.40
2023-05-09T21:52:43.666Z,76.70
2023-05-09T21:55:10.846Z,79.50
2023-05-09T21:57:37.933Z,76.50
2023-05-09T22:00:07.127Z,79.10
2023-05-09T22:02:43.013Z,76.40
2023-05-09T22:05:11.700Z,77.80
2023-05-09T22:07:39.089Z,79.50
2023-05-09T22:10:07.213Z,78.30
2023-05-09T22:12:34.322Z,79.10
2023-05-09T22:15:01.523Z,79.80
2023-05-09T22:17:28.740Z,81.10
2023-05-09T22:19:55.854Z,82.70
2023-05-09T22:22:23.260Z,84.50
2023-05-09T22:24:50.505Z,85.40
2023-05-09T22:27:17.640Z,83.90
2023-05-09T22:29:45.830Z,81.70
2023-05-09T22:32:12.990Z,82.70
2023-05-09T22:34:41.375Z,82.50
2023-05-09T22:37:09.013Z,83.10
2023-05-09T22:39:36.097Z,82.90
2023-05-09T22:42:04.212Z,84.10
2023-05-09T22:44:32.707Z,85.00
2023-05-09T22:46:59.785Z,86.50
2023-05-09T22:49:26.983Z,86.20
2023-05-09T22:51:54.118Z,85.40
2023-05-09T22:54:22.489Z,86.20
2023-05-09T22:56:49.668Z,86.20
2023-05-09T22:59:16.771Z,85.10
2023-05-09T23:01:44.056Z,84.20
2023-05-09T23:04:11.189Z,86.10
2023-05-09T23:06:38.374Z,85.30
2023-05-09T23:09:05.455Z,83.70
2023-05-09T23:11:32.636Z,84.30
2023-05-09T23:13:59.921Z,87.00
2023-05-09T23:16:27.043Z,89.00
2023-05-09T23:18:54.336Z,87.10
2023-05-09T23:21:21.422Z,89.60
2023-05-09T23:23:48.518Z,89.00
2023-05-09T23:26:15.638Z,88.30
2023-05-09T23:28:42.924Z,88.30
2023-05-09T23:31:10.590Z,90.20
2023-05-09T23:33:37.777Z,88.50
2023-05-09T23:36:05.443Z,89.70
2023-05-09T23:38:32.607Z,90.10
2023-05-09T23:41:01.258Z,90.10
2023-05-09T23:43:29.024Z,91.50
2023-05-09T23:45:56.954Z,92.60
2023-05-09T23:48:24.238Z,92.10
2023-05-09T23:50:51.840Z,91.00
2023-05-09T23:53:18.969Z,91.10
2023-05-09T23:55:46.087Z,92.30
2023-05-09T23:58:13.252Z,92.10
